createdAt,value
2024-03-02T00:01:25.390Z,99888.06
2024-03-02T00:03:52.896Z,99894.81
2024-03-02T00:06:22.976Z,99901.00
2024-03-02T00:08:49.877Z,99898.38
2024-03-02T00:11:17.440Z,99899.19
2024-03-02T00:13:47.143Z,99908.69
2024-03-02T00:16:13.910Z,99910.34
2024-03-02T00:18:40.695Z,99913.63
2024-03-02T00:21:10.773Z,99928.91
2024-03-02T00:23:38.134Z,99926.31
2024-03-02T00:26:04.738Z,99936.50
2024-03-02T00:28:36.481Z,99942.56
2024-03-02T00:31:07.408Z,99947.78
2024-03-02T00:33:48.243Z,99937.19
2024-03-02T00:36:23.571Z,99984.06
2024-03-02T00:38:51.885Z,99982.25
2024-03-02T00:41:24.230Z,99988.31
2024-03-02T00:44:07.388Z,99998.75
2024-03-02T00:46:51.841Z,100015.38
2024-03-02T00:49:23.075Z,100006.03
2024-03-02T00:51:53.629Z,100003.66
2024-03-02T00:54:22.681Z,99999.66
2024-03-02T00:56:49.750Z,100001.69
2024-03-02T00:59:19.813Z,100012.38
2024-03-02T01:01:49.156Z,100017.97
2024-03-02T01:04:17.868Z,100017.78
2024-03-02T01:06:47.353Z,100021.59
2024-03-02T01:09:14.150Z,100015.81
2024-03-02T01:11:40.853Z,100019.59
2024-03-02T01:14:07.516Z,100025.78
2024-03-02T01:16:33.995Z,100032.22
2024-03-02T01:19:00.731Z,100018.56
2024-03-02T01:21:27.740Z,100016.31
2024-03-02T01:23:54.388Z,100013.16
2024-03-02T01:26:20.787Z,100031.78
2024-03-02T01:28:47.396Z,100019.22
2024-03-02T01:31:14.049Z,100036.78
2024-03-02T01:33:40.728Z,100029.91
2024-03-02T01:36:09.143Z,100029.22
2024-03-02T01:38:35.987Z,100023.28
2024-03-02T01:41:03.530Z,100034.78
2024-03-02T01:43:30.098Z,100030.53
2024-03-02T01:45:57.858Z,100025.53
2024-03-02T01:48:24.482Z,100037.88
2024-03-02T01:50:51.415Z,100038.97
2024-03-02T01:53:17.979Z,100045.13
2024-03-02T01:55:44.703Z,100055.66
2024-03-02T01:58:11.443Z,100036.81
2024-03-02T02:00:38.167Z,100036.97
2024-03-02T02:03:04.964Z,100038.00
2024-03-02T02:05:32.632Z,100045.13
2024-03-02T02:07:59.696Z,100036.59
2024-03-02T02:10:26.181Z,100043.69
2024-03-02T02:12:52.805Z,100041.22
2024-03-02T02:15:37.905Z,100050.94
2024-03-02T02:18:05.166Z,100051.91
2024-03-02T02:20:31.767Z,100043.38
2024-03-02T02:23:03.125Z,100047.84
2024-03-02T02:25:30.756Z,100049.06
2024-03-02T02:27:58.606Z,100038.72
2024-03-02T02:30:33.221Z,100037.34
2024-03-02T02:33:00.135Z,100037.47
2024-03-02T02:35:26.888Z,100033.53
2024-03-02T02:37:55.428Z,100037.19
2024-03-02T02:40:22.215Z,100052.94
2024-03-02T02:42:49.250Z,100057.47
2024-03-02T02:45:16.773Z,100061.84
2024-03-02T02:47:44.800Z,100053.31
2024-03-02T02:50:12.870Z,100048.94
2024-03-02T02:52:41.450Z,100045.84
2024-03-02T02:55:10.255Z,100052.97
2024-03-02T02:57:39.874Z,100052.22
2024-03-02T03:00:11.895Z,100061.72
2024-03-02T03:02:43.031Z,100055.91
2024-03-02T03:05:11.570Z,100056.75
2024-03-02T03:07:38.743Z,100058.50
2024-03-02T03:10:05.690Z,100049.16
2024-03-02T03:12:35.096Z,100054.47
2024-03-02T03:15:02.146Z,100053.66
2024-03-02T03:17:28.690Z,100052.13
2024-03-02T03:19:55.845Z,100050.59
2024-03-02T03:22:22.315Z,100050.69
2024-03-02T03:24:48.915Z,100060.38
2024-03-02T03:27:15.423Z,100058.03
2024-03-02T03:29:41.865Z,100060.03
2024-03-02T03:32:09.072Z,100071.50
2024-03-02T03:34:36.090Z,100068.19
2024-03-02T03:37:03.459Z,100075.41
2024-03-02T03:39:29.952Z,100058.25
2024-03-02T03:41:56.610Z,100074.81
2024-03-02T03:44:23.175Z,100066.25
2024-03-02T03:46:49.759Z,100078.31
2024-03-02T03:49:16.304Z,100064.50
2024-03-02T03:51:42.726Z,100074.81
2024-03-02T03:54:09.425Z,100074.81
2024-03-02T03:56:35.864Z,100084.28
2024-03-02T03:59:02.781Z,100078.94
2024-03-02T04:01:29.259Z,100069.34
2024-03-02T04:03:56.094Z,100069.34
2024-03-02T04:06:22.670Z,100073.50
2024-03-02T04:08:49.386Z,100079.53
2024-03-02T04:11:16.193Z,100076.94
2024-03-02T04:13:42.645Z,100085.56
2024-03-02T04:16:09.108Z,100087.25
2024-03-02T04:18:36.268Z,100091.63
2024-03-02T04:21:02.866Z,100096.84
2024-03-02T04:23:29.271Z,100097.66
2024-03-02T04:25:55.691Z,100090.69
2024-03-02T04:28:22.119Z,100090.69
2024-03-02T04:30:48.658Z,100095.75
2024-03-02T04:33:15.259Z,100093.03
2024-03-02T04:35:41.858Z,100093.03
2024-03-02T04:38:08.264Z,100105.03
2024-03-02T04:40:34.664Z,100105.09
2024-03-02T04:43:01.227Z,100100.63
2024-03-02T04:45:27.814Z,100107.63
2024-03-02T04:47:54.314Z,100109.38
2024-03-02T04:50:20.768Z,100103.34
2024-03-02T04:52:47.246Z,100114.56
2024-03-02T04:55:29.037Z,100116.34
2024-03-02T04:57:58.552Z,100124.06
2024-03-02T05:00:25.177Z,100129.28
2024-03-02T05:02:52.270Z,100124.41
2024-03-02T05:05:19.094Z,100125.22
2024-03-02T05:07:45.704Z,100126.19
2024-03-02T05:10:15.740Z,100127.00
2024-03-02T05:12:45.906Z,100127.13
2024-03-02T05:15:14.873Z,100132.22
2024-03-02T05:17:45.479Z,100131.25
2024-03-02T05:20:12.659Z,100128.66
2024-03-02T05:22:39.492Z,100133.03
2024-03-02T05:25:08.065Z,100138.13
2024-03-02T05:27:34.773Z,100133.75
2024-03-02T05:30:01.625Z,100134.94
2024-03-02T05:32:28.267Z,100129.72
2024-03-02T05:34:56.209Z,100132.34
2024-03-02T05:37:22.932Z,100143.69
2024-03-02T05:39:49.617Z,100134.19
2024-03-02T05:42:17.869Z,100128.16
2024-03-02T05:44:44.689Z,100124.84
2024-03-02T05:47:11.253Z,100134.88
2024-03-02T05:49:37.806Z,100136.28
2024-03-02T05:52:04.522Z,100140.28
2024-03-02T05:54:31.086Z,100139.78
2024-03-02T05:56:57.548Z,100144.88
2024-03-02T05:59:23.957Z,100142.16
2024-03-02T06:01:53.300Z,100145.59
2024-03-02T06:04:20.064Z,100154.94
2024-03-02T06:06:46.954Z,100147.97
2024-03-02T06:09:13.795Z,100158.38
2024-03-02T06:11:41.578Z,100156.59
2024-03-02T06:14:09.286Z,100166.31
2024-03-02T06:16:36.165Z,100162.88
2024-03-02T06:19:03.271Z,100165.47
2024-03-02T06:21:30.014Z,100171.38
2024-03-02T06:23:57.718Z,100172.44
2024-03-02T06:26:26.083Z,100177.66
2024-03-02T06:28:53.173Z,100175.06
2024-03-02T06:31:19.778Z,100187.25
2024-03-02T06:33:46.591Z,100188.06
2024-03-02T06:36:13.268Z,100190.56
2024-03-02T06:38:43.538Z,100185.22
2024-03-02T06:41:10.425Z,100193.88
2024-03-02T06:43:36.985Z,100192.13
2024-03-02T06:46:03.725Z,100198.03
2024-03-02T06:48:31.248Z,100195.31
2024-03-02T06:50:59.263Z,100196.03
2024-03-02T06:53:26.108Z,100196.78
2024-03-02T06:55:52.607Z,100190.63
2024-03-02T06:58:19.054Z,100189.88
2024-03-02T07:00:45.628Z,100194.16
2024-03-02T07:03:12.277Z,100193.44
2024-03-02T07:05:38.708Z,100199.56
2024-03-02T07:08:06.269Z,100191.88
2024-03-02T07:10:32.888Z,100193.66
2024-03-02T07:12:59.419Z,100197.09
2024-03-02T07:15:28.793Z,100193.53
2024-03-02T07:17:55.688Z,100192.59
2024-03-02T07:20:22.161Z,100192.47
2024-03-02T07:22:48.584Z,100199.38
2024-03-02T07:27:45.243Z,100199.97
2024-03-02T07:30:17.256Z,100198.91
2024-03-02T07:32:46.719Z,100207.34
2024-03-02T07:35:14.748Z,100213.25
2024-03-02T07:37:43.153Z,100214.00
2024-03-02T07:40:12.299Z,100215.41
2024-03-02T07:42:40.354Z,100212.69
2024-03-02T07:45:07.646Z,100210.72
2024-03-02T07:47:36.012Z,100221.94
2024-03-02T07:50:02.705Z,100220.88
2024-03-02T07:52:29.387Z,100219.09
2024-03-02T07:54:56.346Z,100228.59
2024-03-02T07:57:22.892Z,100223.28
2024-03-02T07:59:50.177Z,100223.88
2024-03-02T08:02:16.759Z,100225.53
2024-03-02T08:04:43.449Z,100231.47
2024-03-02T08:07:10.448Z,100238.47
2024-03-02T08:09:36.932Z,100235.75
2024-03-02T08:12:03.666Z,100242.59
2024-03-02T08:14:30.230Z,100253.84
2024-03-02T08:16:57.498Z,100243.31
2024-03-02T08:19:24.330Z,100244.13
2024-03-02T08:21:51.039Z,100242.38
2024-03-02T08:24:17.684Z,100251.88
2024-03-02T08:26:44.211Z,100254.94
2024-03-02T08:29:11.038Z,100242.31
2024-03-02T08:31:39.699Z,100241.41
2024-03-02T08:34:07.849Z,100242.28
2024-03-02T08:36:34.365Z,100242.41
2024-03-02T08:39:03.233Z,100237.44
2024-03-02T08:41:29.763Z,100244.66
2024-03-02T08:43:56.386Z,100234.59
2024-03-02T08:46:22.869Z,100247.06
2024-03-02T08:48:49.356Z,100252.63
2024-03-02T08:51:15.841Z,100241.03
2024-03-02T08:53:42.394Z,100245.03
2024-03-02T08:56:08.811Z,100235.78
2024-03-02T08:58:35.720Z,100240.53
2024-03-02T09:01:02.804Z,100249.19
2024-03-02T09:03:37.048Z,100240.66
2024-03-02T09:06:03.756Z,100242.91
2024-03-02T09:08:30.340Z,100240.91
2024-03-02T09:10:57.556Z,100250.84
2024-03-02T09:13:24.010Z,100244.44
2024-03-02T09:15:50.500Z,100238.59
2024-03-02T09:18:16.969Z,100244.03
2024-03-02T09:20:43.546Z,100237.88
2024-03-02T09:23:10.008Z,100240.34
2024-03-02T09:25:41.868Z,100243.56
2024-03-02T09:28:08.739Z,100246.38
2024-03-02T09:30:35.354Z,100252.50
2024-03-02T09:35:31.168Z,100252.34
2024-03-02T09:37:57.595Z,100247.09
2024-03-02T09:40:24.138Z,100247.03
2024-03-02T09:42:55.789Z,100256.75
2024-03-02T09:45:28.464Z,100252.56
2024-03-02T09:47:55.975Z,100252.81
2024-03-02T09:50:25.464Z,100252.03
2024-03-02T09:52:53.540Z,100259.09
2024-03-02T09:55:20.498Z,100254.63
2024-03-02T09:57:47.565Z,100256.16
2024-03-02T10:00:15.955Z,100252.06
2024-03-02T10:02:43.470Z,100244.06
2024-03-02T10:05:10.493Z,100256.22
2024-03-02T10:07:36.943Z,100255.16
2024-03-02T10:10:15.021Z,100249.72
2024-03-02T10:12:41.653Z,100245.34
2024-03-02T10:15:10.279Z,100246.34
2024-03-02T10:17:36.754Z,100241.66
2024-03-02T10:20:24.029Z,100249.66
2024-03-02T10:22:50.473Z,100246.25
2024-03-02T10:28:07.054Z,100246.47
2024-03-02T10:30:35.199Z,100249.78
2024-03-02T10:33:06.687Z,100248.09
2024-03-02T10:35:34.215Z,100243.44
2024-03-02T10:38:01.582Z,100237.53
2024-03-02T10:40:28.333Z,100236.56
2024-03-02T10:42:55.925Z,100236.72
2024-03-02T10:45:25.831Z,100231.19
2024-03-02T10:47:52.427Z,100232.28
2024-03-02T10:50:18.970Z,100219.88
2024-03-02T10:52:46.346Z,100221.66
2024-03-02T10:55:13.647Z,100221.53
2024-03-02T10:57:51.713Z,100215.97
2024-03-02T11:00:25.684Z,100208.38
2024-03-02T11:02:57.280Z,100203.56
2024-03-02T11:05:35.190Z,100204.50
2024-03-02T11:08:05.321Z,100213.75
2024-03-02T11:10:37.863Z,100213.88
2024-03-02T11:13:11.071Z,100216.19
2024-03-02T11:15:38.559Z,100217.28
2024-03-02T11:18:09.787Z,100215.44
2024-03-02T11:20:39.852Z,100214.44
2024-03-02T11:23:10.505Z,100219.38
2024-03-02T11:25:37.611Z,100211.31
2024-03-02T11:28:06.952Z,100228.72
2024-03-02T11:30:33.904Z,100221.81
2024-03-02T11:33:08.596Z,100208.09
2024-03-02T11:35:49.248Z,100204.81
2024-03-02T11:38:15.836Z,100212.13
2024-03-02T11:40:42.454Z,100205.22
2024-03-02T11:43:13.548Z,100201.59
2024-03-02T11:45:45.277Z,100207.63
2024-03-02T11:48:15.512Z,100196.13
2024-03-02T11:50:47.346Z,100203.56
2024-03-02T11:53:14.814Z,100190.53
2024-03-02T11:55:42.068Z,100188.09
2024-03-02T11:58:09.119Z,100181.56
2024-03-02T12:00:36.356Z,100187.72
2024-03-02T12:03:05.753Z,100181.25
2024-03-02T12:05:33.144Z,100185.25
2024-03-02T12:08:01.165Z,100179.81
2024-03-02T12:10:28.227Z,100177.09
2024-03-02T12:13:08.906Z,100169.94
2024-03-02T12:15:40.107Z,100159.63
2024-03-02T12:18:07.323Z,100161.47
2024-03-02T12:20:34.961Z,100160.59
2024-03-02T12:23:04.165Z,100160.91
2024-03-02T12:25:34.470Z,100157.94
2024-03-02T12:28:02.885Z,100158.13
2024-03-02T12:30:36.524Z,100154.97
2024-03-02T12:33:03.624Z,100144.84
2024-03-02T12:35:31.011Z,100140.94
2024-03-02T12:37:57.476Z,100149.38
2024-03-02T12:40:24.382Z,100145.22
2024-03-02T12:42:52.815Z,100146.81
2024-03-02T12:45:26.595Z,100146.38
2024-03-02T12:47:53.713Z,100142.78
2024-03-02T12:50:21.398Z,100124.31
2024-03-02T12:52:55.302Z,100131.06
2024-03-02T12:55:26.063Z,100117.94
2024-03-02T12:57:53.616Z,100122.19
2024-03-02T13:00:21.915Z,100122.53
2024-03-02T13:02:49.715Z,100112.19
2024-03-02T13:05:16.402Z,100122.59
2024-03-02T13:07:43.570Z,100120.31
2024-03-02T13:10:10.575Z,100124.28
2024-03-02T13:12:38.729Z,100126.25
2024-03-02T13:15:06.671Z,100122.31
2024-03-02T13:17:37.953Z,100118.38
2024-03-02T13:20:09.159Z,100128.25
2024-03-02T13:22:36.124Z,100123.47
2024-03-02T13:25:05.306Z,100127.94
2024-03-02T13:27:33.313Z,100128.03
2024-03-02T13:29:59.850Z,100121.97
2024-03-02T13:32:27.179Z,100117.06
2024-03-02T13:34:53.879Z,100116.13
2024-03-02T13:37:21.504Z,100106.88
2024-03-02T13:39:47.973Z,100113.44
2024-03-02T13:42:16.124Z,100118.34
2024-03-02T13:44:49.562Z,100117.56
2024-03-02T13:47:18.240Z,100113.31
2024-03-02T13:49:46.873Z,100110.84
2024-03-02T13:52:17.905Z,100106.53
2024-03-02T13:54:46.591Z,100102.88
2024-03-02T13:57:13.700Z,100109.28
2024-03-02T13:59:41.747Z,100105.50
2024-03-02T14:02:10.099Z,100099.94
2024-03-02T14:04:38.482Z,100098.59
2024-03-02T14:07:08.211Z,100087.66
2024-03-02T14:09:35.203Z,100076.25
2024-03-02T14:12:01.832Z,100082.34
2024-03-02T14:14:28.295Z,100080.22
2024-03-02T14:16:57.072Z,100086.44
2024-03-02T14:19:23.586Z,100078.53
2024-03-02T14:21:50.071Z,100074.47
2024-03-02T14:24:16.727Z,100069.19
2024-03-02T14:26:45.667Z,100063.63
2024-03-02T14:29:12.597Z,100064.88
2024-03-02T14:31:39.166Z,100055.53
2024-03-02T14:34:05.745Z,100044.53
2024-03-02T14:36:32.514Z,100041.78
2024-03-02T14:38:59.299Z,100025.00
2024-03-02T14:41:25.945Z,100020.25
2024-03-02T14:43:53.346Z,100026.50
2024-03-02T14:46:20.697Z,100027.16
2024-03-02T14:48:47.856Z,100029.78
2024-03-02T14:51:15.069Z,100032.25
2024-03-02T14:53:41.920Z,100034.06
2024-03-02T14:56:08.466Z,100027.16
2024-03-02T14:58:36.580Z,100023.50
2024-03-02T15:01:10.379Z,100032.44
2024-03-02T15:03:37.095Z,100030.78
2024-03-02T15:06:05.232Z,100026.66
2024-03-02T15:08:37.806Z,100026.00
2024-03-02T15:11:05.041Z,100029.44
2024-03-02T15:13:37.570Z,100027.16
2024-03-02T15:16:04.478Z,100033.59
2024-03-02T15:18:31.707Z,100035.72
2024-03-02T15:20:58.154Z,100032.75
2024-03-02T15:23:27.161Z,100024.34
2024-03-02T15:25:53.682Z,100025.00
2024-03-02T15:28:20.281Z,100020.38
2024-03-02T15:30:46.786Z,100024.19
2024-03-02T15:33:13.330Z,100027.13
2024-03-02T15:35:39.836Z,100026.31
2024-03-02T15:38:14.839Z,100024.81
2024-03-02T15:40:45.525Z,100037.28
2024-03-02T15:43:11.980Z,100038.34
2024-03-02T15:45:41.645Z,100038.09
2024-03-02T15:48:08.180Z,100030.00
2024-03-02T15:50:35.760Z,100033.16
2024-03-02T15:53:05.457Z,100032.59
2024-03-02T15:55:32.047Z,100026.31
2024-03-02T15:57:58.610Z,100027.66
2024-03-02T16:00:25.120Z,100028.13
2024-03-02T16:02:51.565Z,100029.47
2024-03-02T16:05:19.471Z,100020.91
2024-03-02T16:07:46.504Z,100016.44
2024-03-02T16:10:13.784Z,100007.53
2024-03-02T16:12:40.609Z,100006.66
2024-03-02T16:15:08.962Z,99994.50
2024-03-02T16:17:35.749Z,99997.09
2024-03-02T16:20:06.977Z,99998.69
2024-03-02T16:22:34.438Z,100000.28
2024-03-02T16:25:01.089Z,99996.47
2024-03-02T16:27:28.952Z,99987.41
2024-03-02T16:29:59.922Z,99993.25
2024-03-02T16:32:29.234Z,99998.84
2024-03-02T16:34:56.425Z,99999.13
2024-03-02T16:37:24.786Z,99993.22
2024-03-02T16:39:51.481Z,99988.28
2024-03-02T16:42:20.972Z,99986.59
2024-03-02T16:44:53.002Z,99996.28
2024-03-02T16:47:19.489Z,99994.78
2024-03-02T16:49:46.391Z,99993.31
2024-03-02T16:52:14.046Z,99987.53
2024-03-02T16:54:40.728Z,99986.03
2024-03-02T16:57:07.204Z,99991.44
2024-03-02T16:59:33.664Z,99989.25
2024-03-02T17:02:00.269Z,99986.41
2024-03-02T17:04:27.356Z,99991.28
2024-03-02T17:06:54.189Z,99987.59
2024-03-02T17:09:20.790Z,99989.00
2024-03-02T17:11:47.175Z,99982.59
2024-03-02T17:14:13.706Z,99986.47
2024-03-02T17:16:40.285Z,99988.44
2024-03-02T17:19:06.794Z,99990.81
2024-03-02T17:21:33.848Z,100004.38
2024-03-02T17:24:03.823Z,100007.47
2024-03-02T17:26:30.902Z,100005.44
2024-03-02T17:28:57.339Z,100009.47
2024-03-02T17:31:23.790Z,100013.34
2024-03-02T17:33:50.571Z,100008.69
2024-03-02T17:36:17.140Z,100015.22
2024-03-02T17:38:43.954Z,100018.97
2024-03-02T17:41:11.705Z,100020.06
2024-03-02T17:43:38.851Z,100027.25
2024-03-02T17:46:05.559Z,100021.34
2024-03-02T17:48:32.926Z,100027.41
2024-03-02T17:50:59.527Z,100021.03
2024-03-02T17:53:26.089Z,100028.31
2024-03-02T17:55:52.768Z,100030.13
2024-03-02T17:58:19.288Z,100036.88
2024-03-02T18:00:47.361Z,100035.78
2024-03-02T18:03:13.852Z,100042.78
2024-03-02T18:05:40.451Z,100045.41
2024-03-02T18:08:07.513Z,100046.13
2024-03-02T18:10:34.931Z,100047.09
2024-03-02T18:13:04.403Z,100045.28
2024-03-02T18:15:31.112Z,100039.06
2024-03-02T18:17:57.596Z,100040.88
2024-03-02T18:20:24.047Z,100028.84
2024-03-02T18:22:50.513Z,100043.50
2024-03-02T18:25:17.258Z,100045.41
2024-03-02T18:27:43.895Z,100044.47
2024-03-02T18:30:13.578Z,100043.66
2024-03-02T18:32:40.091Z,100043.50
2024-03-02T18:35:09.496Z,100041.69
2024-03-02T18:37:37.230Z,100043.50
2024-03-02T18:40:06.230Z,100050.38
2024-03-02T18:42:34.206Z,100044.47
2024-03-02T18:45:04.298Z,100041.97
2024-03-02T18:47:30.764Z,100034.56
2024-03-02T18:49:58.389Z,100039.94
2024-03-02T18:52:28.570Z,100034.72
2024-03-02T18:54:55.216Z,100042.69
2024-03-02T18:57:21.717Z,100043.66
2024-03-02T18:59:48.155Z,100038.56
2024-03-02T19:02:14.617Z,100042.03
2024-03-02T19:04:42.075Z,100038.56
2024-03-02T19:07:08.752Z,100050.88
2024-03-02T19:09:35.379Z,100037.91
2024-03-02T19:12:01.970Z,100038.88
2024-03-02T19:14:30.744Z,100043.28
2024-03-02T19:16:57.209Z,100030.47
2024-03-02T19:19:23.658Z,100031.13
2024-03-02T19:21:56.154Z,100027.53
2024-03-02T19:24:28.903Z,100030.16
2024-03-02T19:26:55.381Z,100031.13
2024-03-02T19:29:24.427Z,100020.78
2024-03-02T19:31:50.870Z,100023.56
2024-03-02T19:34:18.940Z,100015.97
2024-03-02T19:36:45.646Z,100016.94
2024-03-02T19:39:12.297Z,100020.53
2024-03-02T19:41:38.767Z,100016.59
2024-03-02T19:44:07.264Z,100015.06
2024-03-02T19:46:33.782Z,100007.66
2024-03-02T19:49:00.267Z,100012.47
2024-03-02T19:51:26.811Z,100011.81
2024-03-02T19:53:53.343Z,100011.94
2024-03-02T19:56:20.154Z,100005.50
2024-03-02T19:58:46.587Z,99996.91
2024-03-02T20:01:13.107Z,100000.66
2024-03-02T20:03:39.632Z,100000.25
2024-03-02T20:06:06.139Z,99998.09
2024-03-02T20:08:32.766Z,99988.69
2024-03-02T20:10:59.221Z,99998.66
2024-03-02T20:13:25.686Z,99989.00
2024-03-02T20:15:53.117Z,99993.69
2024-03-02T20:18:19.730Z,99992.47
2024-03-02T20:20:46.217Z,99985.56
2024-03-02T20:23:12.673Z,99981.44
2024-03-02T20:25:39.295Z,99984.22
2024-03-02T20:28:06.333Z,99985.19
2024-03-02T20:30:32.892Z,99989.03
2024-03-02T20:32:59.398Z,99997.31
2024-03-02T20:35:25.902Z,99991.56
2024-03-02T20:37:52.369Z,99982.28
2024-03-02T20:40:20.235Z,99991.41
2024-03-02T20:42:47.328Z,99984.94
2024-03-02T20:45:19.152Z,99986.97
2024-03-02T20:47:55.760Z,99983.97
2024-03-02T20:50:22.486Z,99990.31
2024-03-02T20:52:49.143Z,99987.97
2024-03-02T20:55:15.907Z,99997.06
2024-03-02T20:57:42.445Z,99996.66
2024-03-02T21:00:09.324Z,99998.59
2024-03-02T21:02:35.869Z,99996.94
2024-03-02T21:05:03.535Z,100000.53
2024-03-02T21:07:30.036Z,99997.34
2024-03-02T21:09:58.112Z,99995.84
2024-03-02T21:12:24.641Z,100003.81
2024-03-02T21:14:51.253Z,99997.91
2024-03-02T21:17:18.036Z,100001.47
2024-03-02T21:19:44.492Z,100006.03
2024-03-02T21:22:11.200Z,100004.38
2024-03-02T21:24:39.434Z,100015.81
2024-03-02T21:27:07.826Z,100016.22
2024-03-02T21:29:34.321Z,100009.22
2024-03-02T21:32:00.911Z,100015.66
2024-03-02T21:34:27.413Z,100022.28
2024-03-02T21:36:53.938Z,100019.13
2024-03-02T21:39:25.999Z,100010.00
2024-03-02T21:41:59.014Z,100022.84
2024-03-02T21:44:25.599Z,100030.13
2024-03-02T21:46:52.049Z,100017.88
2024-03-02T21:49:18.672Z,100017.59
2024-03-02T21:51:45.348Z,100017.19
2024-03-02T21:54:11.849Z,100028.06
2024-03-02T21:56:38.370Z,100026.13
2024-03-02T21:59:04.820Z,100016.19
2024-03-02T22:01:31.352Z,100021.03
2024-03-02T22:03:58.006Z,100025.72
2024-03-02T22:06:24.454Z,100025.56
2024-03-02T22:08:53.345Z,100027.38
2024-03-02T22:11:19.868Z,100013.84
2024-03-02T22:13:50.181Z,100023.94
2024-03-02T22:16:17.329Z,100032.03
2024-03-02T22:18:43.849Z,100029.72
2024-03-02T22:21:10.287Z,100028.06
2024-03-02T22:23:39.767Z,100015.66
2024-03-02T22:26:06.301Z,100025.97
2024-03-02T22:28:32.902Z,100021.56
2024-03-02T22:30:59.402Z,100026.66
2024-03-02T22:33:25.942Z,100019.53
2024-03-02T22:35:52.496Z,100021.19
2024-03-02T22:38:20.710Z,100023.66
2024-03-02T22:40:47.132Z,100017.44
2024-03-02T22:43:13.849Z,100021.88
2024-03-02T22:45:40.524Z,100016.47
2024-03-02T22:48:07.604Z,100010.31
2024-03-02T22:50:34.153Z,100012.63
2024-03-02T22:53:00.612Z,100010.81
2024-03-02T22:55:28.254Z,100012.47
2024-03-02T22:57:57.378Z,100012.31
2024-03-02T23:00:32.483Z,100013.16
2024-03-02T23:02:59.005Z,100013.16
2024-03-02T23:05:25.430Z,100014.94
2024-03-02T23:07:52.009Z,100010.81
2024-03-02T23:10:20.549Z,100009.84
2024-03-02T23:12:47.300Z,100007.09
2024-03-02T23:15:13.848Z,100003.53
2024-03-02T23:17:40.365Z,100003.53
2024-03-02T23:20:07.659Z,99998.97
2024-03-02T23:22:34.216Z,100002.94
2024-03-02T23:25:00.805Z,100012.31
2024-03-02T23:27:30.308Z,100007.09
2024-03-02T23:29:57.069Z,100011.34
2024-03-02T23:32:23.873Z,100006.13
2024-03-02T23:34:50.371Z,100013.97
2024-03-02T23:37:17.045Z,100013.00
2024-03-02T23:39:47.124Z,100011.34
2024-03-02T23:42:13.583Z,100006.94
2024-03-02T23:44:40.128Z,100007.09
2024-03-02T23:47:07.054Z,100008.06
2024-03-02T23:49:33.614Z,100004.47
2024-03-02T23:52:03.172Z,100001.69
2024-03-02T23:54:29.698Z,100001.53
2024-03-02T23:56:56.303Z,100009.56
2024-03-02T23:59:22.840Z,100012.19
